TAF Text Data
IDs:
Format:
Raw Decoded Include METAR

Data at: 0130 UTC 21 Sep 2021

KRIC 202331Z 2100/2124 09006KT P6SM SCT045 BKN250
  FM210900 06003KT P6SM BKN070
  FM211300 10007KT P6SM BKN045